ハルツーム の空港の天気 - METARとTAF

ハルツーム国際空港 ( HSSS / KRT ) - スーダン ハルツーム
飛行場実況気象(Metar)
観測時間10/26 00:00 CAT (10/25 22:00 UTC)
風向・風速北西 7m/s
視程10km以上
天気現象
なし
気温30℃
湿度18%
気圧1009hPa
METARHSSS 252200Z 32013KT CAVOK 30/03 Q1009 NOSIG
過去の天気等 Google飛行場航空写真 Wunderground天気予報

過去48時間のMETAR

飛行場予報(TAF)
発表時間: 10/25 19:00 CAT (10/25 17:00 UTC)
予報対象時間: 25日20時 CAT ~ 27日2時 CAT
風向・風速北 5m/s 瞬間風速 10m/s
視程10km以上
なし
HSSS 251700Z 2518/2624 36010G20KT CAVOK